Time;durP1;ratioP1;P1;durP2;ratioP2;P2;SDS_P1;SDS_P2;PMS_P1;PMS_P2;Temp;Humidity;BMP_temperature;BMP_pressure;BME280_temperature;BME280_humidity;BME280_pressure;Samples;Min_cycle;Max_cycle;Signal;HPM_P1;HPM_P2
2022/07/16 00:02:49;;;;;;;8.15;3.70;;;;;;;;;;5035234;28;20098;-72
2022/07/16 00:05:15;;;;;;;9.07;3.53;;;;;;;;;;5034811;28;20026;-72
2022/07/16 00:07:42;;;;;;;8.35;3.78;;;;;;;;;;5031718;28;20036;-73
2022/07/16 00:10:08;;;;;;;8.05;3.95;;;;;;;;;;5033499;28;20133;-73
2022/07/16 00:12:35;;;;;;;7.28;3.50;;;;;;;;;;5030347;28;20036;-72
2022/07/16 00:15:03;;;;;;;6.25;3.63;;;;;;;;;;5032368;28;20021;-71
2022/07/16 00:17:29;;;;;;;7.72;3.72;;;;;;;;;;5032706;28;20471;-72
2022/07/16 00:19:55;;;;;;;7.32;3.55;;;;;;;;;;5033872;28;20033;-72
2022/07/16 00:22:21;;;;;;;10.27;3.78;;;;;;;;;;5034229;28;20459;-71
2022/07/16 00:24:47;;;;;;;11.85;3.67;;;;;;;;;;5034125;28;20045;-72
2022/07/16 00:27:13;;;;;;;9.50;3.33;;;;;;;;;;5033076;28;20057;-71
2022/07/16 00:29:39;;;;;;;10.77;4.10;;;;;;;;;;5034835;28;20037;-71
2022/07/16 00:32:05;;;;;;;5.90;3.20;;;;;;;;;;5034555;28;20037;-72
2022/07/16 00:34:31;;;;;;;11.00;3.70;;;;;;;;;;5034379;28;20022;-72
2022/07/16 00:36:57;;;;;;;8.85;3.42;;;;;;;;;;5034269;28;20026;-72
2022/07/16 00:39:23;;;;;;;13.38;3.58;;;;;;;;;;5034451;28;20037;-71
2022/07/16 00:41:49;;;;;;;6.57;3.45;;;;;;;;;;5034117;28;20029;-72
2022/07/16 00:44:17;;;;;;;5.95;3.30;;;;;;;;;;5032962;28;20032;-72
2022/07/16 00:46:44;;;;;;;6.80;3.65;;;;;;;;;;5034059;28;20026;-72
2022/07/16 00:49:10;;;;;;;5.75;3.58;;;;;;;;;;5034422;28;20029;-71
2022/07/16 00:51:37;;;;;;;5.45;3.55;;;;;;;;;;5033785;28;20026;-72
2022/07/16 00:54:04;;;;;;;6.75;3.40;;;;;;;;;;5033863;28;20027;-72
2022/07/16 00:56:30;;;;;;;6.05;3.50;;;;;;;;;;5034120;28;20077;-71
2022/07/16 00:58:56;;;;;;;7.90;3.75;;;;;;;;;;5033119;28;20034;-71
2022/07/16 01:01:22;;;;;;;9.45;3.42;;;;;;;;;;5032800;28;20044;-71
2022/07/16 01:03:50;;;;;;;8.45;3.53;;;;;;;;;;5035008;28;20081;-73
2022/07/16 01:06:16;;;;;;;7.78;3.70;;;;;;;;;;5034157;28;20108;-72
2022/07/16 01:08:44;;;;;;;5.50;3.67;;;;;;;;;;5036093;28;20025;-73
2022/07/16 01:11:11;;;;;;;7.05;3.97;;;;;;;;;;5035028;28;19913;-70
2022/07/16 01:13:41;;;;;;;7.10;4.15;;;;;;;;;;5036613;28;20112;-73
2022/07/16 01:16:08;;;;;;;9.27;3.88;;;;;;;;;;5036654;28;20056;-74
2022/07/16 01:18:34;;;;;;;10.82;4.35;;;;;;;;;;5037434;28;20124;-72
2022/07/16 01:21:01;;;;;;;8.48;4.13;;;;;;;;;;5038649;28;20117;-70
2022/07/16 01:23:27;;;;;;;5.63;4.00;;;;;;;;;;5038701;28;20032;-72
2022/07/16 01:25:53;;;;;;;10.10;4.00;;;;;;;;;;5038092;28;20034;-72
2022/07/16 01:28:19;;;;;;;10.05;4.15;;;;;;;;;;5041636;28;20069;-71
2022/07/16 01:30:47;;;;;;;10.18;4.03;;;;;;;;;;5041661;28;20108;-70
2022/07/16 01:33:29;;;;;;;8.27;4.15;;;;;;;;;;5039496;28;20516;-71
2022/07/16 01:35:57;;;;;;;7.88;4.38;;;;;;;;;;5039260;28;20069;-71
2022/07/16 01:38:23;;;;;;;6.20;3.90;;;;;;;;;;5041325;28;20120;-71
2022/07/16 01:40:49;;;;;;;7.00;3.88;;;;;;;;;;5042696;28;20033;-71
2022/07/16 01:43:16;;;;;;;7.63;4.55;;;;;;;;;;5042221;28;20029;-71
2022/07/16 01:45:42;;;;;;;8.15;4.70;;;;;;;;;;5039009;28;20542;-72
2022/07/16 01:48:08;;;;;;;7.25;4.85;;;;;;;;;;5041683;28;20029;-72
2022/07/16 01:50:53;;;;;;;11.52;4.60;;;;;;;;;;5041664;28;20029;-73
2022/07/16 01:53:19;;;;;;;7.78;4.53;;;;;;;;;;5041142;28;20026;-73
2022/07/16 01:55:45;;;;;;;9.95;4.70;;;;;;;;;;5039685;28;20049;-73
2022/07/16 01:58:12;;;;;;;8.90;4.80;;;;;;;;;;5037087;28;20406;-71
2022/07/16 02:00:39;;;;;;;8.20;4.72;;;;;;;;;;5037709;28;20104;-72
2022/07/16 02:03:05;;;;;;;11.45;5.60;;;;;;;;;;5049181;28;20081;-71
2022/07/16 02:05:31;;;;;;;7.32;5.72;;;;;;;;;;5056179;28;20040;-70
2022/07/16 02:07:57;;;;;;;11.55;5.97;;;;;;;;;;5055360;28;20493;-72
2022/07/16 02:10:23;;;;;;;10.43;5.53;;;;;;;;;;5052827;28;20483;-71
2022/07/16 02:12:49;;;;;;;9.90;6.55;;;;;;;;;;5056350;28;20024;-70
2022/07/16 02:15:15;;;;;;;13.15;7.28;;;;;;;;;;5052441;28;20025;-71
2022/07/16 02:17:41;;;;;;;15.50;7.95;;;;;;;;;;5052330;28;20059;-73
2022/07/16 02:20:08;;;;;;;11.38;8.32;;;;;;;;;;5053581;28;20241;-71
2022/07/16 02:22:34;;;;;;;12.25;7.80;;;;;;;;;;5052400;28;20033;-72
2022/07/16 02:25:01;;;;;;;18.60;8.88;;;;;;;;;;5051719;28;20028;-72
2022/07/16 02:27:27;;;;;;;12.75;9.18;;;;;;;;;;5051670;28;20043;-72
2022/07/16 02:29:53;;;;;;;14.30;8.77;;;;;;;;;;5051689;28;20044;-72
2022/07/16 02:32:19;;;;;;;15.40;9.80;;;;;;;;;;5051996;28;20021;-71
2022/07/16 02:34:45;;;;;;;15.20;8.95;;;;;;;;;;5050317;28;20029;-72
2022/07/16 02:37:11;;;;;;;14.70;10.45;;;;;;;;;;5051264;28;20029;-72
2022/07/16 02:39:37;;;;;;;19.38;10.52;;;;;;;;;;5051336;28;20037;-71
2022/07/16 02:42:03;;;;;;;15.60;10.25;;;;;;;;;;5051853;28;20148;-72
2022/07/16 02:44:29;;;;;;;16.23;10.98;;;;;;;;;;5052450;28;20109;-72
2022/07/16 02:46:55;;;;;;;20.23;11.07;;;;;;;;;;5052039;28;20072;-71
2022/07/16 02:49:21;;;;;;;16.90;11.23;;;;;;;;;;5051757;28;20124;-73
2022/07/16 02:51:47;;;;;;;21.45;12.15;;;;;;;;;;5052158;28;20025;-73
2022/07/16 02:54:13;;;;;;;27.35;12.90;;;;;;;;;;5052368;28;20025;-73
2022/07/16 02:56:39;;;;;;;17.23;11.95;;;;;;;;;;5051133;28;20094;-71
2022/07/16 02:59:06;;;;;;;20.42;12.27;;;;;;;;;;5053320;28;20063;-71
2022/07/16 03:01:32;;;;;;;28.08;14.77;;;;;;;;;;5036562;28;20070;-72
2022/07/16 03:03:58;;;;;;;18.35;12.00;;;;;;;;;;5055245;28;20068;-72
2022/07/16 03:06:24;;;;;;;18.40;10.40;;;;;;;;;;5055253;28;20025;-72
2022/07/16 03:08:50;;;;;;;16.45;10.50;;;;;;;;;;5038047;28;20048;-72
2022/07/16 03:11:16;;;;;;;18.08;11.07;;;;;;;;;;5057518;28;20057;-72
2022/07/16 03:13:42;;;;;;;18.42;10.55;;;;;;;;;;5056488;28;20435;-70
2022/07/16 03:16:08;;;;;;;17.85;10.75;;;;;;;;;;5057258;28;20069;-72
2022/07/16 03:18:34;;;;;;;15.20;10.50;;;;;;;;;;5057652;28;20402;-72
2022/07/16 03:21:01;;;;;;;21.70;10.85;;;;;;;;;;5060061;28;20029;-71
2022/07/16 03:23:27;;;;;;;18.63;9.93;;;;;;;;;;5060016;28;20126;-70
2022/07/16 03:25:53;;;;;;;19.88;9.65;;;;;;;;;;5056604;28;20045;-72
2022/07/16 03:28:19;;;;;;;11.98;8.23;;;;;;;;;;5060227;28;20029;-72
2022/07/16 03:30:45;;;;;;;15.32;7.85;;;;;;;;;;5060115;28;20029;-70
2022/07/16 03:33:11;;;;;;;15.10;7.15;;;;;;;;;;5056637;28;20031;-74
2022/07/16 03:35:37;;;;;;;11.93;6.50;;;;;;;;;;5057803;28;20119;-73
2022/07/16 03:40:47;;;;;;;12.00;5.88;;;;;;;;;;5057595;28;20091;-72
2022/07/16 03:43:13;;;;;;;8.40;4.50;;;;;;;;;;5056438;28;20036;-71
2022/07/16 03:45:39;;;;;;;16.98;5.13;;;;;;;;;;5053185;28;20048;-71
2022/07/16 03:48:05;;;;;;;9.70;4.40;;;;;;;;;;5049956;28;20487;-71
2022/07/16 03:50:31;;;;;;;12.63;4.47;;;;;;;;;;5031852;28;20454;-73
2022/07/16 03:52:57;;;;;;;8.40;3.50;;;;;;;;;;5029494;28;20029;-71
2022/07/16 03:55:23;;;;;;;6.32;2.97;;;;;;;;;;5030325;28;20050;-72
2022/07/16 03:57:49;;;;;;;6.80;2.75;;;;;;;;;;5030137;28;20026;-71
2022/07/16 04:00:15;;;;;;;5.07;2.30;;;;;;;;;;5029315;28;20495;-71
2022/07/16 04:02:41;;;;;;;9.07;2.13;;;;;;;;;;5029280;28;20029;-73
2022/07/16 04:05:08;;;;;;;6.72;2.08;;;;;;;;;;5029281;28;20487;-71
2022/07/16 04:07:34;;;;;;;7.80;2.22;;;;;;;;;;5030473;28;20034;-71
2022/07/16 04:10:00;;;;;;;6.30;1.83;;;;;;;;;;5029081;28;20042;-71
2022/07/16 04:12:26;;;;;;;11.15;2.28;;;;;;;;;;5030633;28;20026;-72
2022/07/16 04:14:52;;;;;;;8.40;2.58;;;;;;;;;;5029319;28;20371;-71
2022/07/16 04:17:18;;;;;;;5.80;1.98;;;;;;;;;;5031032;28;20024;-72
2022/07/16 04:19:44;;;;;;;7.78;2.25;;;;;;;;;;5031024;28;20079;-71
2022/07/16 04:22:10;;;;;;;6.32;2.33;;;;;;;;;;5030942;28;20475;-72
2022/07/16 04:24:36;;;;;;;10.65;2.30;;;;;;;;;;5031434;28;20041;-71
2022/07/16 04:27:02;;;;;;;12.00;2.25;;;;;;;;;;5029825;28;20029;-71
2022/07/16 04:29:28;;;;;;;4.55;1.60;;;;;;;;;;5033195;28;20043;-72
2022/07/16 04:31:55;;;;;;;8.65;1.92;;;;;;;;;;5031438;28;20287;-71
2022/07/16 04:34:21;;;;;;;8.82;2.03;;;;;;;;;;5032267;28;20176;-72
2022/07/16 04:36:47;;;;;;;6.40;1.75;;;;;;;;;;5032591;28;20443;-71
2022/07/16 04:39:13;;;;;;;7.57;1.83;;;;;;;;;;5031119;28;20040;-71
2022/07/16 04:41:39;;;;;;;7.13;1.73;;;;;;;;;;5033525;28;20113;-71
2022/07/16 04:44:05;;;;;;;7.03;1.88;;;;;;;;;;5033382;28;20096;-72
2022/07/16 04:46:31;;;;;;;9.45;1.60;;;;;;;;;;5034483;28;20116;-71
2022/07/16 04:48:57;;;;;;;4.20;1.73;;;;;;;;;;5033795;28;20504;-71
2022/07/16 04:51:23;;;;;;;9.43;2.08;;;;;;;;;;5036476;28;20017;-71
2022/07/16 04:53:49;;;;;;;3.80;1.48;;;;;;;;;;5035415;28;20037;-71
2022/07/16 04:56:15;;;;;;;7.57;1.95;;;;;;;;;;5034935;28;20069;-72
2022/07/16 04:58:41;;;;;;;8.13;1.90;;;;;;;;;;5035323;28;20022;-72
2022/07/16 05:01:07;;;;;;;6.28;2.03;;;;;;;;;;5038022;28;20056;-72
2022/07/16 05:03:33;;;;;;;7.15;1.73;;;;;;;;;;5042091;28;20617;-70
2022/07/16 05:05:59;;;;;;;8.32;2.10;;;;;;;;;;5040176;28;20029;-71
2022/07/16 05:08:25;;;;;;;7.13;1.80;;;;;;;;;;5054290;28;20469;-71
2022/07/16 05:10:51;;;;;;;6.25;1.70;;;;;;;;;;5061755;28;20032;-73
2022/07/16 05:13:17;;;;;;;5.03;1.50;;;;;;;;;;5060893;28;20029;-72
2022/07/16 05:15:43;;;;;;;6.50;1.80;;;;;;;;;;5060194;28;20055;-73
2022/07/16 05:18:09;;;;;;;6.03;1.75;;;;;;;;;;5061675;28;20048;-71
2022/07/16 05:20:36;;;;;;;5.95;1.50;;;;;;;;;;5061357;28;20109;-72
2022/07/16 05:23:02;;;;;;;6.45;1.63;;;;;;;;;;5063584;28;20490;-71
2022/07/16 05:25:28;;;;;;;8.75;1.88;;;;;;;;;;5057158;28;20634;-71
2022/07/16 05:27:54;;;;;;;8.30;1.65;;;;;;;;;;5055945;28;20079;-72
2022/07/16 05:30:20;;;;;;;7.07;1.60;;;;;;;;;;5053918;28;20422;-72
2022/07/16 05:32:46;;;;;;;7.43;2.05;;;;;;;;;;5055092;28;20054;-71
2022/07/16 05:35:16;;;;;;;7.65;1.52;;;;;;;;;;5053124;28;20028;-71
2022/07/16 05:37:42;;;;;;;6.13;1.93;;;;;;;;;;5052854;28;20059;-72
2022/07/16 05:40:08;;;;;;;10.32;2.15;;;;;;;;;;5052806;28;20276;-71
2022/07/16 05:42:34;;;;;;;10.13;2.10;;;;;;;;;;5053511;28;20039;-72
2022/07/16 05:45:01;;;;;;;11.07;2.00;;;;;;;;;;5053199;28;20025;-73
2022/07/16 05:47:27;;;;;;;10.30;1.77;;;;;;;;;;5053132;28;20439;-72
2022/07/16 05:49:53;;;;;;;6.70;1.75;;;;;;;;;;5052981;28;20031;-71
2022/07/16 05:52:19;;;;;;;8.20;2.15;;;;;;;;;;5053308;28;20052;-72
2022/07/16 05:54:45;;;;;;;17.02;1.88;;;;;;;;;;5051521;28;20032;-71
2022/07/16 05:57:11;;;;;;;9.02;1.50;;;;;;;;;;5052311;28;20049;-71
2022/07/16 05:59:37;;;;;;;9.80;2.38;;;;;;;;;;5051319;28;20593;-71
2022/07/16 06:02:03;;;;;;;6.78;1.60;;;;;;;;;;5053237;28;20509;-72
2022/07/16 06:04:29;;;;;;;10.07;1.58;;;;;;;;;;5053054;28;20037;-72
2022/07/16 06:06:56;;;;;;;8.75;1.50;;;;;;;;;;5052133;28;20033;-72
2022/07/16 06:09:22;;;;;;;7.78;1.95;;;;;;;;;;5052963;28;20128;-72
2022/07/16 06:11:48;;;;;;;8.90;1.92;;;;;;;;;;5052914;28;20033;-72
2022/07/16 06:14:14;;;;;;;7.15;1.58;;;;;;;;;;5052742;28;20166;-72
2022/07/16 06:16:41;;;;;;;10.60;1.88;;;;;;;;;;5052254;28;20069;-72
2022/07/16 06:19:07;;;;;;;7.97;1.60;;;;;;;;;;5053388;28;20032;-72
2022/07/16 06:21:33;;;;;;;27.77;3.15;;;;;;;;;;5054551;28;20493;-71
2022/07/16 06:23:59;;;;;;;8.20;1.52;;;;;;;;;;5053815;28;20021;-72
2022/07/16 06:26:25;;;;;;;21.45;2.47;;;;;;;;;;5055548;28;20549;-71
2022/07/16 06:28:51;;;;;;;11.88;1.50;;;;;;;;;;5048452;28;20021;-72
2022/07/16 06:31:17;;;;;;;6.10;1.23;;;;;;;;;;5041546;28;20033;-69
2022/07/16 06:33:43;;;;;;;8.82;1.38;;;;;;;;;;5047103;28;20021;-70
2022/07/16 06:36:09;;;;;;;8.27;1.85;;;;;;;;;;5044337;28;20065;-70
2022/07/16 06:38:35;;;;;;;7.78;1.40;;;;;;;;;;5051298;28;20025;-69
2022/07/16 06:41:01;;;;;;;6.65;1.50;;;;;;;;;;5046488;28;20730;-70
2022/07/16 06:43:27;;;;;;;7.82;1.73;;;;;;;;;;5050553;28;20123;-69
2022/07/16 06:45:53;;;;;;;5.93;1.65;;;;;;;;;;5052178;28;20028;-69
2022/07/16 06:48:19;;;;;;;7.15;1.50;;;;;;;;;;5050846;28;20588;-69
2022/07/16 06:50:45;;;;;;;4.07;1.20;;;;;;;;;;5053260;28;20029;-70
2022/07/16 06:53:11;;;;;;;7.55;1.60;;;;;;;;;;5054633;28;20029;-69
2022/07/16 06:55:37;;;;;;;8.35;1.70;;;;;;;;;;5054950;28;20511;-70
2022/07/16 06:58:03;;;;;;;6.70;1.25;;;;;;;;;;5053159;28;20025;-69
2022/07/16 07:00:31;;;;;;;7.85;1.50;;;;;;;;;;5053479;28;20071;-68
2022/07/16 07:02:57;;;;;;;5.57;1.20;;;;;;;;;;5055321;28;20051;-68
2022/07/16 07:05:23;;;;;;;6.72;1.10;;;;;;;;;;5055853;28;20033;-69
2022/07/16 07:07:49;;;;;;;4.93;1.25;;;;;;;;;;5053151;28;20035;-69
2022/07/16 07:10:15;;;;;;;19.02;1.90;;;;;;;;;;5053726;28;20032;-68
2022/07/16 07:12:41;;;;;;;19.95;2.25;;;;;;;;;;5054336;28;20029;-69
2022/07/16 07:15:09;;;;;;;10.52;1.30;;;;;;;;;;5052800;28;20124;-70
2022/07/16 07:17:36;;;;;;;7.03;1.30;;;;;;;;;;5051907;28;20040;-70
2022/07/16 07:20:02;;;;;;;5.35;1.33;;;;;;;;;;5051255;28;20071;-69
2022/07/16 07:22:28;;;;;;;6.75;1.40;;;;;;;;;;5050748;28;20037;-69
2022/07/16 07:24:54;;;;;;;8.13;2.10;;;;;;;;;;5050300;28;20029;-69
2022/07/16 07:27:20;;;;;;;7.65;1.10;;;;;;;;;;5050885;28;20414;-68
2022/07/16 07:29:46;;;;;;;5.80;1.30;;;;;;;;;;5049887;28;20025;-69
2022/07/16 07:32:13;;;;;;;9.77;1.15;;;;;;;;;;5050473;28;20025;-68
2022/07/16 07:34:39;;;;;;;12.48;1.60;;;;;;;;;;5050293;28;20051;-68
2022/07/16 07:37:05;;;;;;;6.90;1.40;;;;;;;;;;5048828;28;20079;-70
2022/07/16 07:39:31;;;;;;;8.35;1.73;;;;;;;;;;5048516;28;20033;-68
2022/07/16 07:41:57;;;;;;;8.18;1.58;;;;;;;;;;5050202;28;20466;-69
2022/07/16 07:44:23;;;;;;;15.98;1.40;;;;;;;;;;5050300;28;20036;-69
2022/07/16 07:46:49;;;;;;;21.05;2.03;;;;;;;;;;5039889;28;20419;-70
2022/07/16 07:49:15;;;;;;;12.95;1.42;;;;;;;;;;5029686;28;20491;-70
2022/07/16 07:51:41;;;;;;;5.57;1.35;;;;;;;;;;5030118;28;20033;-70
2022/07/16 07:54:07;;;;;;;8.13;1.50;;;;;;;;;;5028830;28;20021;-69
2022/07/16 07:56:33;;;;;;;2.90;1.10;;;;;;;;;;5030001;28;20423;-70
2022/07/16 07:58:59;;;;;;;6.10;1.35;;;;;;;;;;5030292;28;20026;-70
2022/07/16 08:01:25;;;;;;;6.13;1.25;;;;;;;;;;5030432;28;20048;-69
2022/07/16 08:03:51;;;;;;;9.80;1.20;;;;;;;;;;5030360;28;20033;-70
2022/07/16 08:06:17;;;;;;;10.23;1.30;;;;;;;;;;5030229;28;20029;-70
2022/07/16 08:08:43;;;;;;;7.85;1.60;;;;;;;;;;5029724;28;20475;-69
2022/07/16 08:11:10;;;;;;;7.60;1.55;;;;;;;;;;5028994;28;20060;-69
2022/07/16 08:13:36;;;;;;;8.43;1.50;;;;;;;;;;5029515;28;20029;-69
2022/07/16 08:16:02;;;;;;;21.05;1.75;;;;;;;;;;5030519;28;20026;-70
2022/07/16 08:18:29;;;;;;;5.80;1.38;;;;;;;;;;5030525;28;20117;-70
2022/07/16 08:20:55;;;;;;;5.95;1.10;;;;;;;;;;5030397;28;20030;-69
2022/07/16 08:26:06;;;;;;;6.70;1.25;;;;;;;;;;5051371;28;20036;-70
2022/07/16 08:28:34;;;;;;;9.77;1.30;;;;;;;;;;5052111;28;20033;-69
2022/07/16 08:31:00;;;;;;;8.32;1.38;;;;;;;;;;5051677;28;20025;-70
2022/07/16 08:33:26;;;;;;;45.15;3.45;;;;;;;;;;5051130;28;20029;-68
2022/07/16 08:35:52;;;;;;;11.57;1.50;;;;;;;;;;5053777;28;20403;-70
2022/07/16 08:38:18;;;;;;;8.07;1.55;;;;;;;;;;5056971;28;20080;-68
2022/07/16 08:40:44;;;;;;;5.75;1.45;;;;;;;;;;5056542;28;20037;-68
2022/07/16 08:43:10;;;;;;;5.97;1.25;;;;;;;;;;5056730;28;20490;-69
2022/07/16 08:45:36;;;;;;;6.30;1.50;;;;;;;;;;5063273;28;20029;-69
2022/07/16 08:48:03;;;;;;;4.60;1.08;;;;;;;;;;5059328;28;20045;-68
2022/07/16 08:50:29;;;;;;;5.32;1.27;;;;;;;;;;5059242;28;20435;-69
2022/07/16 08:52:56;;;;;;;5.70;1.20;;;;;;;;;;5055818;28;20453;-70
2022/07/16 08:55:23;;;;;;;7.95;1.33;;;;;;;;;;5058586;28;20041;-69
2022/07/16 08:57:49;;;;;;;12.15;1.75;;;;;;;;;;5060558;28;20096;-69
2022/07/16 09:00:17;;;;;;;6.00;1.27;;;;;;;;;;5059326;28;20459;-70
2022/07/16 09:02:43;;;;;;;6.43;1.20;;;;;;;;;;5055865;28;20021;-71
2022/07/16 09:05:09;;;;;;;8.52;1.17;;;;;;;;;;5057392;28;20083;-69
2022/07/16 09:07:35;;;;;;;41.90;3.80;;;;;;;;;;5057638;28;20029;-69
2022/07/16 09:10:02;;;;;;;15.43;1.33;;;;;;;;;;5055012;28;20193;-68
2022/07/16 09:12:54;;;;;;;5.82;1.45;;;;;;;;;;5055817;28;20029;-69
2022/07/16 09:15:34;;;;;;;7.78;1.40;;;;;;;;;;5053045;28;20047;-69
2022/07/16 09:18:21;;;;;;;3.88;1.10;;;;;;;;;;5055471;28;20032;-70
2022/07/16 09:20:47;;;;;;;4.85;1.17;;;;;;;;;;5053723;28;20534;-70
2022/07/16 09:23:17;;;;;;;10.55;1.30;;;;;;;;;;5053198;28;20078;-71
2022/07/16 09:25:47;;;;;;;10.15;1.40;;;;;;;;;;5052893;28;20067;-69
2022/07/16 09:28:13;;;;;;;3.45;1.17;;;;;;;;;;5053664;28;20039;-69
2022/07/16 09:30:39;;;;;;;7.03;1.23;;;;;;;;;;5052354;28;20075;-70
2022/07/16 09:33:12;;;;;;;7.22;1.20;;;;;;;;;;5052835;28;20057;-70
2022/07/16 09:35:38;;;;;;;10.55;1.50;;;;;;;;;;5051818;28;20040;-70
2022/07/16 09:38:09;;;;;;;3.58;1.17;;;;;;;;;;5052469;28;20029;-69
2022/07/16 09:40:35;;;;;;;5.00;2.38;;;;;;;;;;5052618;28;20566;-69
2022/07/16 09:43:01;;;;;;;13.07;1.65;;;;;;;;;;5052541;28;20510;-69
2022/07/16 09:45:27;;;;;;;7.55;1.15;;;;;;;;;;5040531;28;20095;-69
2022/07/16 09:47:54;;;;;;;7.15;1.50;;;;;;;;;;5032062;28;20029;-69
2022/07/16 09:50:20;;;;;;;10.05;1.35;;;;;;;;;;5032083;28;20421;-68
2022/07/16 09:52:46;;;;;;;7.25;1.25;;;;;;;;;;5031068;28;20029;-69
2022/07/16 09:55:12;;;;;;;5.47;1.48;;;;;;;;;;5032586;28;20029;-70
2022/07/16 09:57:38;;;;;;;5.07;1.08;;;;;;;;;;5032815;28;20025;-69
2022/07/16 10:00:07;;;;;;;3.30;1.05;;;;;;;;;;5030953;28;20045;-69
2022/07/16 10:02:33;;;;;;;5.88;1.08;;;;;;;;;;5032615;28;20025;-70
2022/07/16 10:05:00;;;;;;;4.45;1.27;;;;;;;;;;5032440;28;20569;-70
2022/07/16 10:07:26;;;;;;;4.63;1.30;;;;;;;;;;5032311;28;20494;-69
2022/07/16 10:09:52;;;;;;;8.70;1.48;;;;;;;;;;5031756;28;20353;-69
2022/07/16 10:12:20;;;;;;;6.75;1.10;;;;;;;;;;5032128;28;20526;-69
2022/07/16 10:14:48;;;;;;;5.70;1.42;;;;;;;;;;5032041;28;20022;-68
2022/07/16 10:17:15;;;;;;;6.18;1.75;;;;;;;;;;5031867;28;20021;-69
2022/07/16 10:19:41;;;;;;;5.38;1.00;;;;;;;;;;5031586;28;20101;-69
2022/07/16 10:22:15;;;;;;;3.65;0.80;;;;;;;;;;5031795;28;20122;-68
2022/07/16 10:24:46;;;;;;;6.40;1.48;;;;;;;;;;5032399;28;20041;-70
2022/07/16 10:27:29;;;;;;;6.60;1.40;;;;;;;;;;5032261;28;20032;-69
2022/07/16 10:30:15;;;;;;;5.85;1.33;;;;;;;;;;5032470;28;20025;-68
2022/07/16 10:32:59;;;;;;;4.20;1.33;;;;;;;;;;5032970;28;20021;-70
2022/07/16 10:35:31;;;;;;;9.43;2.42;;;;;;;;;;5033631;28;20056;-70
2022/07/16 10:38:07;;;;;;;7.72;1.33;;;;;;;;;;5033538;28;20021;-69
2022/07/16 10:40:33;;;;;;;2.72;1.35;;;;;;;;;;5033580;28;20055;-68
2022/07/16 10:43:19;;;;;;;9.52;1.42;;;;;;;;;;5034789;28;20026;-70
2022/07/16 10:45:55;;;;;;;4.47;0.98;;;;;;;;;;5034672;28;20104;-69
2022/07/16 10:48:22;;;;;;;9.88;1.65;;;;;;;;;;5033728;28;20079;-68
2022/07/16 10:51:07;;;;;;;6.65;1.10;;;;;;;;;;5033399;28;20433;-70
2022/07/16 10:53:51;;;;;;;7.45;1.70;;;;;;;;;;5032651;28;20465;-69
2022/07/16 10:56:38;;;;;;;9.98;1.52;;;;;;;;;;5031527;28;20038;-70
2022/07/16 10:59:04;;;;;;;8.27;1.25;;;;;;;;;;5030424;28;20116;-69
2022/07/16 11:01:30;;;;;;;6.05;1.30;;;;;;;;;;5030122;28;20033;-69
2022/07/16 11:03:57;;;;;;;4.22;1.33;;;;;;;;;;5032064;28;20095;-69
2022/07/16 11:06:23;;;;;;;6.70;1.10;;;;;;;;;;5031732;28;20030;-68
2022/07/16 11:08:53;;;;;;;3.15;1.00;;;;;;;;;;5040475;28;20018;-70
2022/07/16 11:11:19;;;;;;;3.53;0.90;;;;;;;;;;5042972;28;20489;-70
2022/07/16 11:13:46;;;;;;;4.70;1.30;;;;;;;;;;5029846;28;20272;-69
2022/07/16 11:16:12;;;;;;;9.10;1.25;;;;;;;;;;5031694;28;20505;-69
2022/07/16 11:18:39;;;;;;;5.25;1.40;;;;;;;;;;5030894;28;20029;-69
2022/07/16 11:21:06;;;;;;;8.65;1.42;;;;;;;;;;5030491;28;20026;-69
2022/07/16 11:23:46;;;;;;;5.60;1.10;;;;;;;;;;5030666;28;20560;-69
2022/07/16 11:26:12;;;;;;;;;;;;;;;;;;5031541;28;20029;-69
2022/07/16 11:28:50;;;;;;;6.22;1.17;;;;;;;;;;5030302;28;19905;-69
2022/07/16 11:31:23;;;;;;;5.88;1.35;;;;;;;;;;5030274;28;20034;-70
2022/07/16 11:33:49;;;;;;;5.25;1.08;;;;;;;;;;5030304;28;20428;-69
2022/07/16 11:36:15;;;;;;;8.18;1.30;;;;;;;;;;5030526;28;20021;-70
2022/07/16 11:38:41;;;;;;;7.15;1.50;;;;;;;;;;5029414;28;20388;-70
2022/07/16 11:41:08;;;;;;;5.05;1.33;;;;;;;;;;5029942;28;20026;-70
2022/07/16 11:43:34;;;;;;;2.70;0.88;;;;;;;;;;5030145;28;20109;-70
2022/07/16 11:46:00;;;;;;;7.47;1.15;;;;;;;;;;5028978;28;20483;-70
2022/07/16 11:48:35;;;;;;;5.78;1.17;;;;;;;;;;5030757;28;20470;-68
2022/07/16 11:51:06;;;;;;;15.88;3.88;;;;;;;;;;5030406;28;20080;-70
2022/07/16 11:53:33;;;;;;;11.60;2.80;;;;;;;;;;5030455;28;20025;-70
2022/07/16 11:56:00;;;;;;;4.95;1.10;;;;;;;;;;5030485;28;20068;-71
2022/07/16 11:58:26;;;;;;;6.05;1.20;;;;;;;;;;5030571;28;20039;-71
2022/07/16 12:00:52;;;;;;;4.70;1.38;;;;;;;;;;5030156;28;20094;-71
2022/07/16 12:03:18;;;;;;;4.30;1.15;;;;;;;;;;5039502;28;20111;-71
2022/07/16 12:05:44;;;;;;;3.05;1.00;;;;;;;;;;5050535;28;20029;-70
2022/07/16 12:08:11;;;;;;;9.95;1.55;;;;;;;;;;5050331;28;20146;-71
2022/07/16 12:10:37;;;;;;;3.92;1.10;;;;;;;;;;5053484;28;20049;-70
2022/07/16 12:13:03;;;;;;;5.07;1.10;;;;;;;;;;5055460;28;20021;-70
2022/07/16 12:15:29;;;;;;;6.45;1.40;;;;;;;;;;5055470;28;20025;-69
2022/07/16 12:17:55;;;;;;;7.70;1.48;;;;;;;;;;5056392;28;20017;-68
2022/07/16 12:20:25;;;;;;;13.13;1.55;;;;;;;;;;5059692;28;20032;-70
2022/07/16 12:23:08;;;;;;;12.02;1.75;;;;;;;;;;5058403;28;20079;-70
2022/07/16 12:25:36;;;;;;;7.93;1.45;;;;;;;;;;5059392;28;20406;-70
2022/07/16 12:28:02;;;;;;;8.55;1.50;;;;;;;;;;5058518;28;20063;-69
2022/07/16 12:30:47;;;;;;;12.13;6.10;;;;;;;;;;5059150;28;20029;-70
2022/07/16 12:33:15;;;;;;;15.23;2.00;;;;;;;;;;5059372;28;20052;-70
2022/07/16 12:35:46;;;;;;;14.45;1.92;;;;;;;;;;5057906;28;20463;-69
2022/07/16 12:38:45;;;;;;;33.95;2.53;;;;;;;;;;5057895;28;20024;-69
2022/07/16 12:41:23;;;;;;;7.50;1.40;;;;;;;;;;5051379;28;20032;-71
2022/07/16 12:43:53;;;;;;;25.77;2.45;;;;;;;;;;5057804;28;20032;-70
2022/07/16 12:46:21;;;;;;;10.43;1.17;;;;;;;;;;5056660;28;20352;-69
2022/07/16 12:48:47;;;;;;;12.43;1.45;;;;;;;;;;5057631;28;20029;-70
2022/07/16 12:51:16;;;;;;;8.52;1.92;;;;;;;;;;5058080;28;20074;-69
2022/07/16 12:53:42;;;;;;;6.13;0.90;;;;;;;;;;5057859;28;20111;-71
2022/07/16 12:58:53;;;;;;;5.82;1.13;;;;;;;;;;5056797;28;20494;-69
2022/07/16 13:01:20;;;;;;;5.10;1.02;;;;;;;;;;5050621;28;20483;-70
2022/07/16 13:03:46;;;;;;;8.38;1.00;;;;;;;;;;5035207;28;20026;-71
2022/07/16 13:06:13;;;;;;;5.95;1.13;;;;;;;;;;5035850;28;20040;-69
2022/07/16 13:08:39;;;;;;;6.80;1.10;;;;;;;;;;5037721;28;20079;-69
2022/07/16 13:11:06;;;;;;;7.45;1.30;;;;;;;;;;5036951;28;20450;-70
2022/07/16 13:13:33;;;;;;;7.03;1.17;;;;;;;;;;5036838;28;20049;-69
2022/07/16 13:15:59;;;;;;;6.53;1.20;;;;;;;;;;5034920;28;20056;-70
2022/07/16 13:18:25;;;;;;;5.97;1.10;;;;;;;;;;5051830;28;20517;-70
2022/07/16 13:20:51;;;;;;;9.60;1.50;;;;;;;;;;5055750;28;20483;-69
2022/07/16 13:23:17;;;;;;;17.02;1.80;;;;;;;;;;5052147;28;20050;-68
2022/07/16 13:25:43;;;;;;;27.08;3.45;;;;;;;;;;5053937;28;20032;-69
2022/07/16 13:28:09;;;;;;;9.60;1.70;;;;;;;;;;5054113;28;20146;-69
2022/07/16 13:30:36;;;;;;;11.77;1.73;;;;;;;;;;5053565;28;20119;-69
2022/07/16 13:33:02;;;;;;;4.15;1.10;;;;;;;;;;5052971;28;20535;-70
2022/07/16 13:35:28;;;;;;;7.53;1.67;;;;;;;;;;5053193;28;20029;-70
2022/07/16 13:37:54;;;;;;;6.25;1.20;;;;;;;;;;5052806;28;20066;-70
2022/07/16 13:40:20;;;;;;;13.75;1.73;;;;;;;;;;5052998;28;20494;-70
2022/07/16 13:42:46;;;;;;;5.55;1.55;;;;;;;;;;5052863;28;20032;-69
2022/07/16 13:45:12;;;;;;;5.28;1.30;;;;;;;;;;5052744;28;20493;-71
2022/07/16 13:47:38;;;;;;;5.63;1.33;;;;;;;;;;5052810;28;20067;-69
2022/07/16 13:50:06;;;;;;;6.25;1.45;;;;;;;;;;5051247;28;20036;-69
2022/07/16 13:52:32;;;;;;;8.15;1.10;;;;;;;;;;5052631;28;20052;-70
2022/07/16 13:54:58;;;;;;;6.22;1.25;;;;;;;;;;5052824;28;20036;-70
2022/07/16 14:00:09;;;;;;;6.18;1.10;;;;;;;;;;5053074;28;20056;-70
2022/07/16 14:02:35;;;;;;;8.50;1.27;;;;;;;;;;5037010;28;20021;-70
2022/07/16 14:05:02;;;;;;;5.63;1.00;;;;;;;;;;5042278;28;20052;-70
2022/07/16 14:07:28;;;;;;;5.70;0.98;;;;;;;;;;5032327;28;20083;-71
2022/07/16 14:09:54;;;;;;;8.30;1.40;;;;;;;;;;5031959;28;20025;-70
2022/07/16 14:12:20;;;;;;;7.43;1.20;;;;;;;;;;5035441;28;20090;-70
2022/07/16 14:14:47;;;;;;;11.25;1.67;;;;;;;;;;5033550;28;20693;-69
2022/07/16 14:17:13;;;;;;;5.03;1.00;;;;;;;;;;5041596;28;20489;-69
2022/07/16 14:19:39;;;;;;;9.90;2.00;;;;;;;;;;5041777;28;20542;-70
2022/07/16 14:22:06;;;;;;;5.53;1.65;;;;;;;;;;5034567;28;20467;-69
2022/07/16 14:24:32;;;;;;;9.18;1.38;;;;;;;;;;5031768;28;20495;-70
2022/07/16 14:26:58;;;;;;;10.15;1.13;;;;;;;;;;5047669;28;20048;-69
2022/07/16 14:29:24;;;;;;;7.57;1.27;;;;;;;;;;5032834;28;20020;-69
2022/07/16 14:31:50;;;;;;;10.18;1.77;;;;;;;;;;5034442;28;20060;-70
2022/07/16 14:34:16;;;;;;;6.18;1.13;;;;;;;;;;5043832;28;20048;-70
2022/07/16 14:36:42;;;;;;;4.35;1.02;;;;;;;;;;5036201;28;20460;-70
2022/07/16 14:39:08;;;;;;;6.00;1.23;;;;;;;;;;5034487;28;20538;-70
2022/07/16 14:41:34;;;;;;;9.15;1.25;;;;;;;;;;5036831;28;20518;-70
2022/07/16 14:44:00;;;;;;;5.75;1.00;;;;;;;;;;5032467;28;20164;-70
2022/07/16 14:46:26;;;;;;;8.52;1.13;;;;;;;;;;5040686;28;20080;-70
2022/07/16 14:48:52;;;;;;;8.95;1.13;;;;;;;;;;5032911;28;20018;-71
2022/07/16 14:51:18;;;;;;;6.88;1.30;;;;;;;;;;5033946;28;20475;-71